sensor_id;sensor_type;location;lat;lon;timestamp;P1;durP1;ratioP1;P2;durP2;ratioP2
69256;SDS011;56376;53.356;-1.748;2023-04-03T00:00:52;4.60;;;1.73;;
69256;SDS011;56376;53.356;-1.748;2023-04-03T00:03:18;3.30;;;2.10;;
69256;SDS011;56376;53.356;-1.748;2023-04-03T00:05:44;2.27;;;1.70;;
69256;SDS011;56376;53.356;-1.748;2023-04-03T00:08:10;2.43;;;1.40;;
69256;SDS011;56376;53.356;-1.748;2023-04-03T00:10:36;3.03;;;1.93;;
69256;SDS011;56376;53.356;-1.748;2023-04-03T00:13:02;4.87;;;2.10;;
69256;SDS011;56376;53.356;-1.748;2023-04-03T00:15:28;2.93;;;1.90;;
69256;SDS011;56376;53.356;-1.748;2023-04-03T00:17:54;3.80;;;2.10;;
69256;SDS011;56376;53.356;-1.748;2023-04-03T00:20:19;3.03;;;2.10;;
69256;SDS011;56376;53.356;-1.748;2023-04-03T00:22:45;3.97;;;2.10;;
69256;SDS011;56376;53.356;-1.748;2023-04-03T00:25:10;4.20;;;2.10;;
69256;SDS011;56376;53.356;-1.748;2023-04-03T00:27:37;3.40;;;1.83;;
69256;SDS011;56376;53.356;-1.748;2023-04-03T00:30:04;3.67;;;2.20;;
69256;SDS011;56376;53.356;-1.748;2023-04-03T00:32:30;3.70;;;2.10;;
69256;SDS011;56376;53.356;-1.748;2023-04-03T00:34:56;2.90;;;1.60;;
69256;SDS011;56376;53.356;-1.748;2023-04-03T00:37:21;2.63;;;2.00;;
69256;SDS011;56376;53.356;-1.748;2023-04-03T00:39:47;3.53;;;2.00;;
69256;SDS011;56376;53.356;-1.748;2023-04-03T00:42:12;2.43;;;1.70;;
69256;SDS011;56376;53.356;-1.748;2023-04-03T00:47:03;2.77;;;1.70;;
69256;SDS011;56376;53.356;-1.748;2023-04-03T00:49:32;3.43;;;2.10;;
69256;SDS011;56376;53.356;-1.748;2023-04-03T00:51:57;3.83;;;1.77;;
69256;SDS011;56376;53.356;-1.748;2023-04-03T00:54:24;3.60;;;1.97;;
69256;SDS011;56376;53.356;-1.748;2023-04-03T00:56:51;3.00;;;1.90;;
69256;SDS011;56376;53.356;-1.748;2023-04-03T00:59:20;5.27;;;2.20;;
69256;SDS011;56376;53.356;-1.748;2023-04-03T01:01:50;3.50;;;2.30;;
69256;SDS011;56376;53.356;-1.748;2023-04-03T01:06:57;5.37;;;2.47;;
69256;SDS011;56376;53.356;-1.748;2023-04-03T01:09:27;3.53;;;2.10;;
69256;SDS011;56376;53.356;-1.748;2023-04-03T01:11:54;4.00;;;2.10;;
69256;SDS011;56376;53.356;-1.748;2023-04-03T01:14:19;3.37;;;2.20;;
69256;SDS011;56376;53.356;-1.748;2023-04-03T01:16:54;3.97;;;2.23;;
69256;SDS011;56376;53.356;-1.748;2023-04-03T01:19:20;3.47;;;1.90;;
69256;SDS011;56376;53.356;-1.748;2023-04-03T01:26:53;2.90;;;1.80;;
69256;SDS011;56376;53.356;-1.748;2023-04-03T01:29:18;4.23;;;1.90;;
69256;SDS011;56376;53.356;-1.748;2023-04-03T01:31:45;4.30;;;2.07;;
69256;SDS011;56376;53.356;-1.748;2023-04-03T01:34:14;4.07;;;2.03;;
69256;SDS011;56376;53.356;-1.748;2023-04-03T01:36:40;5.50;;;2.57;;
69256;SDS011;56376;53.356;-1.748;2023-04-03T01:39:06;4.43;;;2.40;;
69256;SDS011;56376;53.356;-1.748;2023-04-03T01:41:31;3.03;;;1.60;;
69256;SDS011;56376;53.356;-1.748;2023-04-03T01:43:57;3.07;;;1.80;;
69256;SDS011;56376;53.356;-1.748;2023-04-03T01:46:22;2.80;;;1.80;;
69256;SDS011;56376;53.356;-1.748;2023-04-03T01:48:48;4.47;;;2.00;;
69256;SDS011;56376;53.356;-1.748;2023-04-03T01:51:14;3.30;;;1.97;;
69256;SDS011;56376;53.356;-1.748;2023-04-03T01:53:40;4.77;;;2.10;;
69256;SDS011;56376;53.356;-1.748;2023-04-03T01:56:05;3.07;;;2.07;;
69256;SDS011;56376;53.356;-1.748;2023-04-03T01:58:31;3.63;;;2.10;;
69256;SDS011;56376;53.356;-1.748;2023-04-03T02:00:56;6.87;;;2.40;;
69256;SDS011;56376;53.356;-1.748;2023-04-03T02:03:22;3.97;;;2.00;;
69256;SDS011;56376;53.356;-1.748;2023-04-03T02:05:47;3.03;;;2.07;;
69256;SDS011;56376;53.356;-1.748;2023-04-03T02:08:13;3.93;;;2.23;;
69256;SDS011;56376;53.356;-1.748;2023-04-03T02:10:38;3.57;;;1.80;;
69256;SDS011;56376;53.356;-1.748;2023-04-03T02:13:04;3.30;;;2.07;;
69256;SDS011;56376;53.356;-1.748;2023-04-03T02:15:30;3.63;;;2.80;;
69256;SDS011;56376;53.356;-1.748;2023-04-03T02:17:56;5.40;;;3.00;;
69256;SDS011;56376;53.356;-1.748;2023-04-03T02:20:21;3.97;;;3.37;;
69256;SDS011;56376;53.356;-1.748;2023-04-03T02:22:46;2.73;;;2.00;;
69256;SDS011;56376;53.356;-1.748;2023-04-03T02:25:12;3.80;;;2.07;;
69256;SDS011;56376;53.356;-1.748;2023-04-03T02:27:38;4.20;;;2.00;;
69256;SDS011;56376;53.356;-1.748;2023-04-03T02:30:04;4.10;;;2.30;;
69256;SDS011;56376;53.356;-1.748;2023-04-03T02:32:30;2.83;;;2.27;;
69256;SDS011;56376;53.356;-1.748;2023-04-03T02:34:56;3.03;;;2.10;;
69256;SDS011;56376;53.356;-1.748;2023-04-03T02:37:21;4.53;;;2.53;;
69256;SDS011;56376;53.356;-1.748;2023-04-03T02:39:47;3.20;;;2.23;;
69256;SDS011;56376;53.356;-1.748;2023-04-03T02:42:12;4.87;;;2.33;;
69256;SDS011;56376;53.356;-1.748;2023-04-03T02:44:38;3.17;;;1.90;;
69256;SDS011;56376;53.356;-1.748;2023-04-03T02:47:03;5.93;;;2.83;;
69256;SDS011;56376;53.356;-1.748;2023-04-03T02:49:29;2.93;;;1.80;;
69256;SDS011;56376;53.356;-1.748;2023-04-03T02:51:54;4.27;;;2.30;;
69256;SDS011;56376;53.356;-1.748;2023-04-03T02:54:20;4.57;;;2.90;;
69256;SDS011;56376;53.356;-1.748;2023-04-03T02:56:47;4.17;;;1.83;;
69256;SDS011;56376;53.356;-1.748;2023-04-03T02:59:12;2.90;;;1.63;;
69256;SDS011;56376;53.356;-1.748;2023-04-03T03:01:37;3.13;;;2.20;;
69256;SDS011;56376;53.356;-1.748;2023-04-03T03:04:03;3.57;;;2.00;;
69256;SDS011;56376;53.356;-1.748;2023-04-03T03:06:28;6.80;;;2.63;;
69256;SDS011;56376;53.356;-1.748;2023-04-03T03:08:54;5.10;;;2.90;;
69256;SDS011;56376;53.356;-1.748;2023-04-03T03:11:19;3.23;;;1.87;;
69256;SDS011;56376;53.356;-1.748;2023-04-03T03:13:45;2.73;;;1.83;;
69256;SDS011;56376;53.356;-1.748;2023-04-03T03:16:10;5.63;;;2.97;;
69256;SDS011;56376;53.356;-1.748;2023-04-03T03:18:35;3.67;;;2.13;;
69256;SDS011;56376;53.356;-1.748;2023-04-03T03:21:01;4.27;;;1.90;;
69256;SDS011;56376;53.356;-1.748;2023-04-03T03:23:28;4.53;;;2.07;;
69256;SDS011;56376;53.356;-1.748;2023-04-03T03:25:58;2.33;;;1.70;;
69256;SDS011;56376;53.356;-1.748;2023-04-03T03:28:29;4.05;;;2.30;;
69256;SDS011;56376;53.356;-1.748;2023-04-03T03:30:54;3.20;;;2.30;;
69256;SDS011;56376;53.356;-1.748;2023-04-03T03:33:20;4.40;;;2.27;;
69256;SDS011;56376;53.356;-1.748;2023-04-03T03:35:45;2.73;;;2.17;;
69256;SDS011;56376;53.356;-1.748;2023-04-03T03:38:11;3.50;;;2.20;;
69256;SDS011;56376;53.356;-1.748;2023-04-03T03:40:37;4.00;;;1.97;;
69256;SDS011;56376;53.356;-1.748;2023-04-03T03:43:02;2.73;;;1.80;;
69256;SDS011;56376;53.356;-1.748;2023-04-03T03:45:28;3.77;;;2.03;;
69256;SDS011;56376;53.356;-1.748;2023-04-03T03:47:53;4.50;;;1.70;;
69256;SDS011;56376;53.356;-1.748;2023-04-03T03:50:19;4.27;;;1.90;;
69256;SDS011;56376;53.356;-1.748;2023-04-03T03:52:44;5.27;;;2.20;;
69256;SDS011;56376;53.356;-1.748;2023-04-03T03:55:10;4.83;;;1.90;;
69256;SDS011;56376;53.356;-1.748;2023-04-03T03:57:36;3.00;;;1.93;;
69256;SDS011;56376;53.356;-1.748;2023-04-03T04:00:02;2.87;;;1.87;;
69256;SDS011;56376;53.356;-1.748;2023-04-03T04:02:28;4.93;;;2.20;;
69256;SDS011;56376;53.356;-1.748;2023-04-03T04:04:54;2.90;;;1.80;;
69256;SDS011;56376;53.356;-1.748;2023-04-03T04:07:19;5.57;;;2.53;;
69256;SDS011;56376;53.356;-1.748;2023-04-03T04:09:45;3.17;;;2.20;;
69256;SDS011;56376;53.356;-1.748;2023-04-03T04:12:10;4.43;;;2.83;;
69256;SDS011;56376;53.356;-1.748;2023-04-03T04:14:36;4.57;;;1.70;;
69256;SDS011;56376;53.356;-1.748;2023-04-03T04:17:01;3.97;;;1.80;;
69256;SDS011;56376;53.356;-1.748;2023-04-03T04:19:27;3.10;;;1.90;;
69256;SDS011;56376;53.356;-1.748;2023-04-03T04:21:53;4.27;;;2.10;;
69256;SDS011;56376;53.356;-1.748;2023-04-03T04:24:18;4.27;;;2.10;;
69256;SDS011;56376;53.356;-1.748;2023-04-03T04:26:43;2.77;;;1.90;;
69256;SDS011;56376;53.356;-1.748;2023-04-03T04:29:09;3.77;;;1.70;;
69256;SDS011;56376;53.356;-1.748;2023-04-03T04:31:35;4.27;;;1.60;;
69256;SDS011;56376;53.356;-1.748;2023-04-03T04:34:00;2.33;;;1.57;;
69256;SDS011;56376;53.356;-1.748;2023-04-03T04:36:26;4.03;;;1.90;;
69256;SDS011;56376;53.356;-1.748;2023-04-03T04:38:51;4.33;;;2.00;;
69256;SDS011;56376;53.356;-1.748;2023-04-03T04:41:19;4.90;;;2.47;;
69256;SDS011;56376;53.356;-1.748;2023-04-03T04:43:47;3.57;;;1.90;;
69256;SDS011;56376;53.356;-1.748;2023-04-03T04:46:13;3.97;;;2.27;;
69256;SDS011;56376;53.356;-1.748;2023-04-03T04:48:38;3.63;;;2.00;;
69256;SDS011;56376;53.356;-1.748;2023-04-03T04:51:05;3.93;;;2.13;;
69256;SDS011;56376;53.356;-1.748;2023-04-03T04:53:31;3.63;;;1.83;;
69256;SDS011;56376;53.356;-1.748;2023-04-03T04:55:56;3.53;;;2.10;;
69256;SDS011;56376;53.356;-1.748;2023-04-03T04:58:21;3.77;;;2.27;;
69256;SDS011;56376;53.356;-1.748;2023-04-03T05:00:47;3.47;;;1.80;;
69256;SDS011;56376;53.356;-1.748;2023-04-03T05:03:12;4.03;;;1.90;;
69256;SDS011;56376;53.356;-1.748;2023-04-03T05:05:38;4.43;;;2.17;;
69256;SDS011;56376;53.356;-1.748;2023-04-03T05:08:03;5.87;;;2.23;;
69256;SDS011;56376;53.356;-1.748;2023-04-03T05:10:29;5.93;;;2.20;;
69256;SDS011;56376;53.356;-1.748;2023-04-03T05:12:55;4.13;;;2.00;;
69256;SDS011;56376;53.356;-1.748;2023-04-03T05:15:20;3.93;;;2.27;;
69256;SDS011;56376;53.356;-1.748;2023-04-03T05:17:46;4.33;;;1.80;;
69256;SDS011;56376;53.356;-1.748;2023-04-03T05:20:11;2.47;;;1.80;;
69256;SDS011;56376;53.356;-1.748;2023-04-03T05:22:37;3.97;;;2.10;;
69256;SDS011;56376;53.356;-1.748;2023-04-03T05:25:03;3.47;;;1.90;;
69256;SDS011;56376;53.356;-1.748;2023-04-03T05:27:29;6.00;;;3.60;;
69256;SDS011;56376;53.356;-1.748;2023-04-03T05:29:54;3.53;;;2.23;;
69256;SDS011;56376;53.356;-1.748;2023-04-03T05:32:20;3.50;;;2.10;;
69256;SDS011;56376;53.356;-1.748;2023-04-03T05:34:47;3.00;;;2.00;;
69256;SDS011;56376;53.356;-1.748;2023-04-03T05:37:12;5.77;;;2.27;;
69256;SDS011;56376;53.356;-1.748;2023-04-03T05:39:38;4.00;;;1.87;;
69256;SDS011;56376;53.356;-1.748;2023-04-03T05:42:05;2.30;;;1.90;;
69256;SDS011;56376;53.356;-1.748;2023-04-03T05:44:32;2.20;;;1.80;;
69256;SDS011;56376;53.356;-1.748;2023-04-03T05:46:57;4.43;;;2.97;;
69256;SDS011;56376;53.356;-1.748;2023-04-03T05:49:22;4.10;;;2.07;;
69256;SDS011;56376;53.356;-1.748;2023-04-03T05:51:48;4.43;;;2.57;;
69256;SDS011;56376;53.356;-1.748;2023-04-03T05:54:16;5.73;;;2.33;;
69256;SDS011;56376;53.356;-1.748;2023-04-03T05:56:45;7.50;;;4.00;;
69256;SDS011;56376;53.356;-1.748;2023-04-03T05:59:10;4.60;;;2.47;;
69256;SDS011;56376;53.356;-1.748;2023-04-03T06:01:36;3.17;;;1.97;;
69256;SDS011;56376;53.356;-1.748;2023-04-03T06:04:02;3.53;;;2.10;;
69256;SDS011;56376;53.356;-1.748;2023-04-03T06:07:14;4.93;;;2.63;;
69256;SDS011;56376;53.356;-1.748;2023-04-03T06:09:23;2.67;;;2.25;;
69256;SDS011;56376;53.356;-1.748;2023-04-03T06:11:51;4.33;;;1.87;;
69256;SDS011;56376;53.356;-1.748;2023-04-03T06:14:17;6.27;;;1.90;;
69256;SDS011;56376;53.356;-1.748;2023-04-03T06:16:43;6.43;;;2.67;;
69256;SDS011;56376;53.356;-1.748;2023-04-03T06:19:09;3.70;;;2.30;;
69256;SDS011;56376;53.356;-1.748;2023-04-03T06:21:36;3.47;;;2.07;;
69256;SDS011;56376;53.356;-1.748;2023-04-03T06:24:04;4.07;;;2.10;;
69256;SDS011;56376;53.356;-1.748;2023-04-03T06:26:31;4.67;;;2.60;;
69256;SDS011;56376;53.356;-1.748;2023-04-03T06:28:57;4.13;;;2.23;;
69256;SDS011;56376;53.356;-1.748;2023-04-03T06:31:22;4.10;;;2.40;;
69256;SDS011;56376;53.356;-1.748;2023-04-03T06:33:48;3.20;;;2.17;;
69256;SDS011;56376;53.356;-1.748;2023-04-03T06:36:13;6.80;;;2.03;;
69256;SDS011;56376;53.356;-1.748;2023-04-03T06:38:39;4.40;;;2.60;;
69256;SDS011;56376;53.356;-1.748;2023-04-03T06:41:04;5.20;;;2.93;;
69256;SDS011;56376;53.356;-1.748;2023-04-03T06:43:30;6.07;;;2.80;;
69256;SDS011;56376;53.356;-1.748;2023-04-03T06:45:58;5.50;;;2.87;;
69256;SDS011;56376;53.356;-1.748;2023-04-03T06:48:23;3.97;;;2.20;;
69256;SDS011;56376;53.356;-1.748;2023-04-03T06:50:48;4.60;;;2.13;;
69256;SDS011;56376;53.356;-1.748;2023-04-03T06:53:14;3.90;;;2.37;;
69256;SDS011;56376;53.356;-1.748;2023-04-03T06:55:40;6.27;;;2.30;;
69256;SDS011;56376;53.356;-1.748;2023-04-03T06:58:06;4.73;;;2.20;;
69256;SDS011;56376;53.356;-1.748;2023-04-03T07:00:32;3.27;;;2.00;;
69256;SDS011;56376;53.356;-1.748;2023-04-03T07:02:57;4.63;;;2.20;;
69256;SDS011;56376;53.356;-1.748;2023-04-03T07:05:23;5.07;;;2.73;;
69256;SDS011;56376;53.356;-1.748;2023-04-03T07:07:49;6.63;;;4.07;;
69256;SDS011;56376;53.356;-1.748;2023-04-03T07:10:15;3.10;;;2.20;;
69256;SDS011;56376;53.356;-1.748;2023-04-03T07:12:41;8.00;;;2.97;;
69256;SDS011;56376;53.356;-1.748;2023-04-03T07:15:06;4.93;;;2.73;;
69256;SDS011;56376;53.356;-1.748;2023-04-03T07:17:33;6.87;;;2.83;;
69256;SDS011;56376;53.356;-1.748;2023-04-03T07:20:01;4.87;;;2.80;;
69256;SDS011;56376;53.356;-1.748;2023-04-03T07:22:28;7.37;;;3.50;;
69256;SDS011;56376;53.356;-1.748;2023-04-03T07:24:54;4.50;;;3.33;;
69256;SDS011;56376;53.356;-1.748;2023-04-03T07:27:20;4.53;;;2.70;;
69256;SDS011;56376;53.356;-1.748;2023-04-03T07:29:45;6.40;;;3.03;;
69256;SDS011;56376;53.356;-1.748;2023-04-03T07:32:12;8.37;;;4.40;;
69256;SDS011;56376;53.356;-1.748;2023-04-03T07:34:38;8.83;;;4.30;;
69256;SDS011;56376;53.356;-1.748;2023-04-03T07:37:03;11.73;;;5.50;;
69256;SDS011;56376;53.356;-1.748;2023-04-03T07:39:29;12.87;;;6.20;;
69256;SDS011;56376;53.356;-1.748;2023-04-03T07:41:55;7.77;;;4.70;;
69256;SDS011;56376;53.356;-1.748;2023-04-03T07:44:21;5.23;;;3.33;;
69256;SDS011;56376;53.356;-1.748;2023-04-03T07:46:47;6.33;;;2.70;;
69256;SDS011;56376;53.356;-1.748;2023-04-03T07:49:13;6.90;;;2.93;;
69256;SDS011;56376;53.356;-1.748;2023-04-03T07:51:39;4.57;;;3.00;;
69256;SDS011;56376;53.356;-1.748;2023-04-03T07:54:05;4.50;;;2.10;;
69256;SDS011;56376;53.356;-1.748;2023-04-03T07:56:31;4.07;;;2.83;;
69256;SDS011;56376;53.356;-1.748;2023-04-03T07:58:57;6.23;;;2.60;;
69256;SDS011;56376;53.356;-1.748;2023-04-03T08:01:22;4.37;;;3.03;;
69256;SDS011;56376;53.356;-1.748;2023-04-03T08:03:48;6.43;;;3.20;;
69256;SDS011;56376;53.356;-1.748;2023-04-03T08:06:13;5.73;;;3.47;;
69256;SDS011;56376;53.356;-1.748;2023-04-03T08:08:40;4.20;;;2.90;;
69256;SDS011;56376;53.356;-1.748;2023-04-03T08:11:06;5.37;;;2.83;;
69256;SDS011;56376;53.356;-1.748;2023-04-03T08:13:33;5.37;;;2.80;;
69256;SDS011;56376;53.356;-1.748;2023-04-03T08:16:06;6.63;;;3.07;;
69256;SDS011;56376;53.356;-1.748;2023-04-03T08:18:33;5.13;;;3.23;;
69256;SDS011;56376;53.356;-1.748;2023-04-03T08:20:58;5.87;;;2.70;;
69256;SDS011;56376;53.356;-1.748;2023-04-03T08:23:24;7.00;;;3.10;;
69256;SDS011;56376;53.356;-1.748;2023-04-03T08:25:49;4.00;;;2.57;;
69256;SDS011;56376;53.356;-1.748;2023-04-03T08:28:15;4.50;;;3.07;;
69256;SDS011;56376;53.356;-1.748;2023-04-03T08:30:41;4.73;;;3.03;;
69256;SDS011;56376;53.356;-1.748;2023-04-03T08:33:07;7.83;;;3.87;;
69256;SDS011;56376;53.356;-1.748;2023-04-03T08:35:33;7.03;;;3.13;;
69256;SDS011;56376;53.356;-1.748;2023-04-03T08:38:03;3.90;;;2.37;;
69256;SDS011;56376;53.356;-1.748;2023-04-03T08:40:28;4.83;;;2.57;;
69256;SDS011;56376;53.356;-1.748;2023-04-03T08:45:51;3.17;;;1.80;;
69256;SDS011;56376;53.356;-1.748;2023-04-03T08:50:59;6.07;;;1.80;;
69256;SDS011;56376;53.356;-1.748;2023-04-03T08:53:30;8.07;;;2.30;;
69256;SDS011;56376;53.356;-1.748;2023-04-03T08:56:00;5.10;;;1.83;;
69256;SDS011;56376;53.356;-1.748;2023-04-03T08:58:30;7.17;;;2.10;;
69256;SDS011;56376;53.356;-1.748;2023-04-03T09:01:07;5.63;;;2.03;;
69256;SDS011;56376;53.356;-1.748;2023-04-03T09:03:45;4.17;;;1.60;;
69256;SDS011;56376;53.356;-1.748;2023-04-03T09:06:14;3.30;;;1.70;;
69256;SDS011;56376;53.356;-1.748;2023-04-03T09:08:45;5.33;;;1.67;;
69256;SDS011;56376;53.356;-1.748;2023-04-03T09:13:48;3.77;;;2.10;;
69256;SDS011;56376;53.356;-1.748;2023-04-03T09:19:02;3.67;;;1.48;;
69256;SDS011;56376;53.356;-1.748;2023-04-03T09:21:40;5.38;;;1.80;;
69256;SDS011;56376;53.356;-1.748;2023-04-03T09:24:07;3.20;;;1.70;;
69256;SDS011;56376;53.356;-1.748;2023-04-03T09:29:27;7.20;;;1.50;;
69256;SDS011;56376;53.356;-1.748;2023-04-03T09:31:56;4.97;;;1.90;;
69256;SDS011;56376;53.356;-1.748;2023-04-03T09:34:28;7.40;;;2.07;;
69256;SDS011;56376;53.356;-1.748;2023-04-03T09:36:57;6.53;;;2.30;;
69256;SDS011;56376;53.356;-1.748;2023-04-03T09:39:33;4.15;;;2.25;;
69256;SDS011;56376;53.356;-1.748;2023-04-03T09:45:01;4.57;;;1.93;;
69256;SDS011;56376;53.356;-1.748;2023-04-03T09:47:30;6.10;;;2.27;;
69256;SDS011;56376;53.356;-1.748;2023-04-03T09:52:41;4.87;;;1.70;;
69256;SDS011;56376;53.356;-1.748;2023-04-03T09:55:16;5.30;;;1.77;;
69256;SDS011;56376;53.356;-1.748;2023-04-03T09:57:42;5.37;;;2.10;;
69256;SDS011;56376;53.356;-1.748;2023-04-03T10:00:41;7.00;;;2.27;;
69256;SDS011;56376;53.356;-1.748;2023-04-03T10:03:03;9.13;;;2.40;;
69256;SDS011;56376;53.356;-1.748;2023-04-03T10:05:37;5.80;;;1.90;;
69256;SDS011;56376;53.356;-1.748;2023-04-03T10:10:40;5.30;;;1.80;;
69256;SDS011;56376;53.356;-1.748;2023-04-03T10:13:09;5.37;;;2.03;;
69256;SDS011;56376;53.356;-1.748;2023-04-03T10:16:12;4.60;;;1.90;;
69256;SDS011;56376;53.356;-1.748;2023-04-03T10:18:46;7.10;;;2.30;;
69256;SDS011;56376;53.356;-1.748;2023-04-03T10:34:45;3.97;;;1.53;;
69256;SDS011;56376;53.356;-1.748;2023-04-03T10:42:28;3.00;;;1.80;;
69256;SDS011;56376;53.356;-1.748;2023-04-03T10:45:23;4.43;;;2.40;;
69256;SDS011;56376;53.356;-1.748;2023-04-03T10:53:21;4.97;;;2.00;;
69256;SDS011;56376;53.356;-1.748;2023-04-03T10:58:56;6.00;;;1.63;;
69256;SDS011;56376;53.356;-1.748;2023-04-03T11:01:35;3.07;;;1.40;;
69256;SDS011;56376;53.356;-1.748;2023-04-03T11:04:05;5.30;;;1.48;;
69256;SDS011;56376;53.356;-1.748;2023-04-03T11:06:34;3.03;;;1.60;;
69256;SDS011;56376;53.356;-1.748;2023-04-03T11:11:47;3.03;;;2.00;;
69256;SDS011;56376;53.356;-1.748;2023-04-03T11:17:15;4.68;;;1.95;;
69256;SDS011;56376;53.356;-1.748;2023-04-03T11:19:50;5.57;;;2.03;;
69256;SDS011;56376;53.356;-1.748;2023-04-03T11:27:38;5.00;;;2.35;;
69256;SDS011;56376;53.356;-1.748;2023-04-03T11:30:11;4.07;;;1.83;;
69256;SDS011;56376;53.356;-1.748;2023-04-03T11:35:35;4.57;;;2.10;;
69256;SDS011;56376;53.356;-1.748;2023-04-03T11:38:03;5.30;;;2.40;;
69256;SDS011;56376;53.356;-1.748;2023-04-03T11:40:32;7.00;;;2.58;;
69256;SDS011;56376;53.356;-1.748;2023-04-03T11:45:33;3.10;;;1.42;;
69256;SDS011;56376;53.356;-1.748;2023-04-03T11:50:47;4.65;;;1.90;;
69256;SDS011;56376;53.356;-1.748;2023-04-03T11:58:34;4.70;;;1.95;;
69256;SDS011;56376;53.356;-1.748;2023-04-03T12:03:33;6.00;;;2.10;;
69256;SDS011;56376;53.356;-1.748;2023-04-03T12:08:45;4.35;;;1.58;;
69256;SDS011;56376;53.356;-1.748;2023-04-03T12:29:15;3.45;;;1.85;;
69256;SDS011;56376;53.356;-1.748;2023-04-03T12:40:26;3.53;;;2.05;;
69256;SDS011;56376;53.356;-1.748;2023-04-03T12:46:14;4.60;;;2.33;;
69256;SDS011;56376;53.356;-1.748;2023-04-03T12:48:27;3.50;;;1.58;;
69256;SDS011;56376;53.356;-1.748;2023-04-03T12:50:55;5.57;;;2.30;;
69256;SDS011;56376;53.356;-1.748;2023-04-03T12:53:26;4.25;;;1.83;;
69256;SDS011;56376;53.356;-1.748;2023-04-03T12:55:55;6.18;;;2.00;;
69256;SDS011;56376;53.356;-1.748;2023-04-03T12:58:26;4.45;;;1.80;;
69256;SDS011;56376;53.356;-1.748;2023-04-03T13:03:44;3.67;;;1.73;;
69256;SDS011;56376;53.356;-1.748;2023-04-03T13:06:14;4.90;;;1.73;;
69256;SDS011;56376;53.356;-1.748;2023-04-03T13:08:51;2.38;;;1.70;;
69256;SDS011;56376;53.356;-1.748;2023-04-03T13:11:25;3.90;;;1.55;;
69256;SDS011;56376;53.356;-1.748;2023-04-03T13:13:57;5.32;;;2.20;;
69256;SDS011;56376;53.356;-1.748;2023-04-03T13:16:24;3.00;;;1.60;;
69256;SDS011;56376;53.356;-1.748;2023-04-03T13:18:50;2.20;;;1.65;;
69256;SDS011;56376;53.356;-1.748;2023-04-03T13:21:27;3.05;;;1.48;;
69256;SDS011;56376;53.356;-1.748;2023-04-03T13:23:56;5.28;;;2.05;;
69256;SDS011;56376;53.356;-1.748;2023-04-03T13:26:25;3.15;;;1.77;;
69256;SDS011;56376;53.356;-1.748;2023-04-03T13:28:57;4.50;;;1.83;;
69256;SDS011;56376;53.356;-1.748;2023-04-03T13:31:29;4.15;;;1.90;;
69256;SDS011;56376;53.356;-1.748;2023-04-03T13:34:10;3.95;;;2.00;;
69256;SDS011;56376;53.356;-1.748;2023-04-03T13:41:38;4.25;;;1.60;;
69256;SDS011;56376;53.356;-1.748;2023-04-03T13:46:46;2.35;;;1.52;;
69256;SDS011;56376;53.356;-1.748;2023-04-03T13:49:58;3.92;;;1.83;;
69256;SDS011;56376;53.356;-1.748;2023-04-03T13:54:58;2.95;;;1.55;;
69256;SDS011;56376;53.356;-1.748;2023-04-03T13:57:25;4.85;;;2.17;;
69256;SDS011;56376;53.356;-1.748;2023-04-03T13:59:51;3.38;;;1.65;;
69256;SDS011;56376;53.356;-1.748;2023-04-03T14:02:18;3.65;;;1.77;;
69256;SDS011;56376;53.356;-1.748;2023-04-03T14:04:55;6.30;;;2.28;;
69256;SDS011;56376;53.356;-1.748;2023-04-03T14:07:25;4.90;;;2.00;;
69256;SDS011;56376;53.356;-1.748;2023-04-03T14:09:50;4.00;;;1.88;;
69256;SDS011;56376;53.356;-1.748;2023-04-03T14:12:18;3.40;;;1.80;;
69256;SDS011;56376;53.356;-1.748;2023-04-03T14:14:57;5.60;;;2.17;;
69256;SDS011;56376;53.356;-1.748;2023-04-03T14:17:24;2.40;;;1.70;;
69256;SDS011;56376;53.356;-1.748;2023-04-03T14:19:51;3.13;;;1.60;;
69256;SDS011;56376;53.356;-1.748;2023-04-03T14:22:19;4.15;;;1.63;;
69256;SDS011;56376;53.356;-1.748;2023-04-03T14:24:47;2.35;;;1.55;;
69256;SDS011;56376;53.356;-1.748;2023-04-03T14:27:24;2.53;;;1.80;;
69256;SDS011;56376;53.356;-1.748;2023-04-03T14:29:54;4.60;;;1.80;;
69256;SDS011;56376;53.356;-1.748;2023-04-03T14:32:21;4.80;;;2.00;;
69256;SDS011;56376;53.356;-1.748;2023-04-03T14:34:48;3.03;;;1.90;;
69256;SDS011;56376;53.356;-1.748;2023-04-03T14:37:17;2.72;;;1.80;;
69256;SDS011;56376;53.356;-1.748;2023-04-03T14:39:44;5.70;;;2.70;;
69256;SDS011;56376;53.356;-1.748;2023-04-03T14:42:15;3.25;;;1.63;;
69256;SDS011;56376;53.356;-1.748;2023-04-03T14:44:43;5.60;;;2.47;;
69256;SDS011;56376;53.356;-1.748;2023-04-03T14:47:10;4.40;;;2.00;;
69256;SDS011;56376;53.356;-1.748;2023-04-03T14:49:37;3.75;;;1.90;;
69256;SDS011;56376;53.356;-1.748;2023-04-03T14:52:02;4.78;;;2.35;;
69256;SDS011;56376;53.356;-1.748;2023-04-03T14:54:28;3.47;;;1.90;;
69256;SDS011;56376;53.356;-1.748;2023-04-03T14:56:54;6.13;;;2.35;;
69256;SDS011;56376;53.356;-1.748;2023-04-03T14:59:22;6.05;;;2.03;;
69256;SDS011;56376;53.356;-1.748;2023-04-03T15:01:48;3.97;;;2.00;;
69256;SDS011;56376;53.356;-1.748;2023-04-03T15:04:17;5.00;;;2.55;;
69256;SDS011;56376;53.356;-1.748;2023-04-03T15:06:44;4.70;;;2.00;;
69256;SDS011;56376;53.356;-1.748;2023-04-03T15:09:24;3.30;;;2.15;;
69256;SDS011;56376;53.356;-1.748;2023-04-03T15:11:52;5.10;;;1.90;;
69256;SDS011;56376;53.356;-1.748;2023-04-03T15:14:19;2.30;;;1.42;;
69256;SDS011;56376;53.356;-1.748;2023-04-03T15:16:45;4.45;;;1.95;;
69256;SDS011;56376;53.356;-1.748;2023-04-03T15:19:10;2.75;;;2.13;;
69256;SDS011;56376;53.356;-1.748;2023-04-03T15:21:37;4.90;;;1.88;;
69256;SDS011;56376;53.356;-1.748;2023-04-03T15:24:03;6.20;;;2.75;;
69256;SDS011;56376;53.356;-1.748;2023-04-03T15:26:29;5.55;;;2.25;;
69256;SDS011;56376;53.356;-1.748;2023-04-03T15:28:55;2.63;;;2.00;;
69256;SDS011;56376;53.356;-1.748;2023-04-03T15:31:20;5.15;;;2.88;;
69256;SDS011;56376;53.356;-1.748;2023-04-03T15:33:46;2.47;;;1.88;;
69256;SDS011;56376;53.356;-1.748;2023-04-03T15:36:11;5.22;;;2.25;;
69256;SDS011;56376;53.356;-1.748;2023-04-03T15:38:36;5.00;;;2.25;;
69256;SDS011;56376;53.356;-1.748;2023-04-03T15:41:03;4.40;;;2.28;;
69256;SDS011;56376;53.356;-1.748;2023-04-03T15:43:28;3.63;;;1.90;;
69256;SDS011;56376;53.356;-1.748;2023-04-03T15:45:56;4.63;;;1.95;;
69256;SDS011;56376;53.356;-1.748;2023-04-03T15:48:23;2.47;;;1.85;;
69256;SDS011;56376;53.356;-1.748;2023-04-03T15:50:49;2.83;;;1.70;;
69256;SDS011;56376;53.356;-1.748;2023-04-03T15:53:14;3.90;;;1.98;;
69256;SDS011;56376;53.356;-1.748;2023-04-03T15:55:40;2.08;;;1.40;;
69256;SDS011;56376;53.356;-1.748;2023-04-03T15:58:06;5.03;;;2.10;;
69256;SDS011;56376;53.356;-1.748;2023-04-03T16:00:31;3.63;;;2.20;;
69256;SDS011;56376;53.356;-1.748;2023-04-03T16:03:02;3.70;;;1.80;;
69256;SDS011;56376;53.356;-1.748;2023-04-03T16:05:30;4.32;;;1.95;;
69256;SDS011;56376;53.356;-1.748;2023-04-03T16:07:57;3.65;;;1.83;;
69256;SDS011;56376;53.356;-1.748;2023-04-03T16:10:25;5.55;;;2.17;;
69256;SDS011;56376;53.356;-1.748;2023-04-03T16:12:51;5.63;;;2.20;;
69256;SDS011;56376;53.356;-1.748;2023-04-03T16:15:16;4.35;;;2.42;;
69256;SDS011;56376;53.356;-1.748;2023-04-03T16:17:42;4.10;;;2.60;;
69256;SDS011;56376;53.356;-1.748;2023-04-03T16:20:09;5.25;;;2.10;;
69256;SDS011;56376;53.356;-1.748;2023-04-03T16:22:35;4.40;;;2.15;;
69256;SDS011;56376;53.356;-1.748;2023-04-03T16:25:02;5.45;;;2.53;;
69256;SDS011;56376;53.356;-1.748;2023-04-03T16:27:28;5.93;;;2.40;;
69256;SDS011;56376;53.356;-1.748;2023-04-03T16:29:56;5.75;;;2.60;;
69256;SDS011;56376;53.356;-1.748;2023-04-03T16:32:22;6.40;;;2.40;;
69256;SDS011;56376;53.356;-1.748;2023-04-03T16:34:48;4.93;;;2.75;;
69256;SDS011;56376;53.356;-1.748;2023-04-03T16:37:14;7.70;;;2.15;;
69256;SDS011;56376;53.356;-1.748;2023-04-03T16:39:40;3.38;;;2.45;;
69256;SDS011;56376;53.356;-1.748;2023-04-03T16:42:05;4.47;;;1.98;;
69256;SDS011;56376;53.356;-1.748;2023-04-03T16:44:31;3.88;;;2.00;;
69256;SDS011;56376;53.356;-1.748;2023-04-03T16:46:56;4.82;;;2.38;;